sensor_id;sensor_type;location;lat;lon;timestamp;P1;durP1;ratioP1;P2;durP2;ratioP2
81106;SDS011;70588;53.172;8.620;2023-07-08T00:00:18;3.58;;;2.70;;
81106;SDS011;70588;53.172;8.620;2023-07-08T00:02:44;4.18;;;2.80;;
81106;SDS011;70588;53.172;8.620;2023-07-08T00:05:10;3.45;;;2.42;;
81106;SDS011;70588;53.172;8.620;2023-07-08T00:07:37;4.28;;;2.50;;
81106;SDS011;70588;53.172;8.620;2023-07-08T00:10:16;5.13;;;3.13;;
81106;SDS011;70588;53.172;8.620;2023-07-08T00:12:47;3.33;;;2.42;;
81106;SDS011;70588;53.172;8.620;2023-07-08T00:15:14;4.07;;;2.67;;
81106;SDS011;70588;53.172;8.620;2023-07-08T00:17:41;4.13;;;2.47;;
81106;SDS011;70588;53.172;8.620;2023-07-08T00:22:42;3.72;;;2.70;;
81106;SDS011;70588;53.172;8.620;2023-07-08T00:25:11;5.20;;;2.90;;
81106;SDS011;70588;53.172;8.620;2023-07-08T00:27:37;5.18;;;2.85;;
81106;SDS011;70588;53.172;8.620;2023-07-08T00:30:08;4.77;;;3.17;;
81106;SDS011;70588;53.172;8.620;2023-07-08T00:32:57;4.90;;;2.45;;
81106;SDS011;70588;53.172;8.620;2023-07-08T00:35:26;4.30;;;2.83;;
81106;SDS011;70588;53.172;8.620;2023-07-08T00:37:56;4.50;;;3.00;;
81106;SDS011;70588;53.172;8.620;2023-07-08T00:40:32;3.72;;;3.10;;
81106;SDS011;70588;53.172;8.620;2023-07-08T00:42:58;3.90;;;2.38;;
81106;SDS011;70588;53.172;8.620;2023-07-08T00:48:12;3.75;;;2.88;;
81106;SDS011;70588;53.172;8.620;2023-07-08T00:50:47;3.10;;;2.22;;
81106;SDS011;70588;53.172;8.620;2023-07-08T00:56:02;3.95;;;2.55;;
81106;SDS011;70588;53.172;8.620;2023-07-08T00:58:34;5.38;;;2.72;;
81106;SDS011;70588;53.172;8.620;2023-07-08T01:01:13;4.22;;;2.90;;
81106;SDS011;70588;53.172;8.620;2023-07-08T01:03:42;4.55;;;2.92;;
81106;SDS011;70588;53.172;8.620;2023-07-08T01:06:19;3.03;;;2.67;;
81106;SDS011;70588;53.172;8.620;2023-07-08T01:08:47;2.97;;;2.53;;
81106;SDS011;70588;53.172;8.620;2023-07-08T01:11:18;4.95;;;3.00;;
81106;SDS011;70588;53.172;8.620;2023-07-08T01:13:49;5.22;;;2.58;;
81106;SDS011;70588;53.172;8.620;2023-07-08T01:16:16;3.30;;;2.67;;
81106;SDS011;70588;53.172;8.620;2023-07-08T01:18:42;2.95;;;2.17;;
81106;SDS011;70588;53.172;8.620;2023-07-08T01:24:06;3.97;;;3.10;;
81106;SDS011;70588;53.172;8.620;2023-07-08T01:26:37;4.45;;;2.95;;
81106;SDS011;70588;53.172;8.620;2023-07-08T01:29:06;3.28;;;2.47;;
81106;SDS011;70588;53.172;8.620;2023-07-08T01:31:32;3.65;;;2.40;;
81106;SDS011;70588;53.172;8.620;2023-07-08T01:33:58;3.22;;;2.67;;
81106;SDS011;70588;53.172;8.620;2023-07-08T01:36:24;2.85;;;2.50;;
81106;SDS011;70588;53.172;8.620;2023-07-08T01:38:51;5.95;;;3.30;;
81106;SDS011;70588;53.172;8.620;2023-07-08T01:41:16;3.03;;;2.60;;
81106;SDS011;70588;53.172;8.620;2023-07-08T01:43:42;4.53;;;2.80;;
81106;SDS011;70588;53.172;8.620;2023-07-08T01:46:13;3.25;;;2.53;;
81106;SDS011;70588;53.172;8.620;2023-07-08T01:48:45;3.63;;;2.88;;
81106;SDS011;70588;53.172;8.620;2023-07-08T01:51:17;4.28;;;2.80;;
81106;SDS011;70588;53.172;8.620;2023-07-08T01:53:42;3.35;;;2.30;;
81106;SDS011;70588;53.172;8.620;2023-07-08T01:56:09;4.88;;;2.97;;
81106;SDS011;70588;53.172;8.620;2023-07-08T01:58:36;5.38;;;3.05;;
81106;SDS011;70588;53.172;8.620;2023-07-08T02:01:02;4.07;;;2.63;;
81106;SDS011;70588;53.172;8.620;2023-07-08T02:03:28;3.70;;;2.90;;
81106;SDS011;70588;53.172;8.620;2023-07-08T02:05:54;3.25;;;2.58;;
81106;SDS011;70588;53.172;8.620;2023-07-08T02:08:19;3.72;;;2.70;;
81106;SDS011;70588;53.172;8.620;2023-07-08T02:10:48;3.67;;;2.47;;
81106;SDS011;70588;53.172;8.620;2023-07-08T02:13:18;4.38;;;2.60;;
81106;SDS011;70588;53.172;8.620;2023-07-08T02:15:44;4.20;;;3.00;;
81106;SDS011;70588;53.172;8.620;2023-07-08T02:18:10;6.00;;;2.83;;
81106;SDS011;70588;53.172;8.620;2023-07-08T02:20:35;2.83;;;2.38;;
81106;SDS011;70588;53.172;8.620;2023-07-08T02:23:01;3.88;;;2.50;;
81106;SDS011;70588;53.172;8.620;2023-07-08T02:25:26;4.40;;;2.58;;
81106;SDS011;70588;53.172;8.620;2023-07-08T02:27:52;4.43;;;3.00;;
81106;SDS011;70588;53.172;8.620;2023-07-08T02:30:22;3.45;;;2.47;;
81106;SDS011;70588;53.172;8.620;2023-07-08T02:32:51;3.85;;;2.55;;
81106;SDS011;70588;53.172;8.620;2023-07-08T02:35:27;3.95;;;3.00;;
81106;SDS011;70588;53.172;8.620;2023-07-08T02:37:54;5.53;;;3.00;;
81106;SDS011;70588;53.172;8.620;2023-07-08T02:40:21;4.20;;;2.53;;
81106;SDS011;70588;53.172;8.620;2023-07-08T02:42:47;4.30;;;3.15;;
81106;SDS011;70588;53.172;8.620;2023-07-08T02:45:13;4.38;;;3.30;;
81106;SDS011;70588;53.172;8.620;2023-07-08T02:47:39;3.42;;;2.85;;
81106;SDS011;70588;53.172;8.620;2023-07-08T02:50:06;3.70;;;2.73;;
81106;SDS011;70588;53.172;8.620;2023-07-08T02:52:33;3.08;;;2.75;;
81106;SDS011;70588;53.172;8.620;2023-07-08T02:54:59;4.07;;;2.85;;
81106;SDS011;70588;53.172;8.620;2023-07-08T02:57:24;4.53;;;3.00;;
81106;SDS011;70588;53.172;8.620;2023-07-08T02:59:50;5.00;;;2.93;;
81106;SDS011;70588;53.172;8.620;2023-07-08T03:02:15;5.72;;;2.97;;
81106;SDS011;70588;53.172;8.620;2023-07-08T03:04:40;5.70;;;3.00;;
81106;SDS011;70588;53.172;8.620;2023-07-08T03:07:07;5.43;;;3.15;;
81106;SDS011;70588;53.172;8.620;2023-07-08T03:09:36;3.47;;;2.83;;
81106;SDS011;70588;53.172;8.620;2023-07-08T03:12:03;5.35;;;3.30;;
81106;SDS011;70588;53.172;8.620;2023-07-08T03:14:30;4.72;;;3.05;;
81106;SDS011;70588;53.172;8.620;2023-07-08T03:16:55;4.57;;;3.10;;
81106;SDS011;70588;53.172;8.620;2023-07-08T03:19:21;3.50;;;2.37;;
81106;SDS011;70588;53.172;8.620;2023-07-08T03:21:47;6.72;;;3.40;;
81106;SDS011;70588;53.172;8.620;2023-07-08T03:24:12;3.20;;;2.60;;
81106;SDS011;70588;53.172;8.620;2023-07-08T03:26:38;4.63;;;3.38;;
81106;SDS011;70588;53.172;8.620;2023-07-08T03:29:04;3.75;;;3.00;;
81106;SDS011;70588;53.172;8.620;2023-07-08T03:31:30;3.47;;;3.15;;
81106;SDS011;70588;53.172;8.620;2023-07-08T03:33:55;4.45;;;2.83;;
81106;SDS011;70588;53.172;8.620;2023-07-08T03:36:21;3.60;;;2.80;;
81106;SDS011;70588;53.172;8.620;2023-07-08T03:38:50;3.83;;;3.40;;
81106;SDS011;70588;53.172;8.620;2023-07-08T03:41:16;5.80;;;2.90;;
81106;SDS011;70588;53.172;8.620;2023-07-08T03:43:42;3.90;;;2.55;;
81106;SDS011;70588;53.172;8.620;2023-07-08T03:46:10;3.08;;;2.75;;
81106;SDS011;70588;53.172;8.620;2023-07-08T03:48:36;3.53;;;2.97;;
81106;SDS011;70588;53.172;8.620;2023-07-08T03:51:02;4.03;;;2.97;;
81106;SDS011;70588;53.172;8.620;2023-07-08T03:53:28;5.63;;;3.35;;
81106;SDS011;70588;53.172;8.620;2023-07-08T03:55:53;2.97;;;2.47;;
81106;SDS011;70588;53.172;8.620;2023-07-08T03:58:18;3.47;;;2.50;;
81106;SDS011;70588;53.172;8.620;2023-07-08T04:00:44;4.83;;;2.63;;
81106;SDS011;70588;53.172;8.620;2023-07-08T04:03:10;3.25;;;2.50;;
81106;SDS011;70588;53.172;8.620;2023-07-08T04:05:36;4.45;;;2.78;;
81106;SDS011;70588;53.172;8.620;2023-07-08T04:08:02;3.53;;;2.75;;
81106;SDS011;70588;53.172;8.620;2023-07-08T04:10:27;4.50;;;2.95;;
81106;SDS011;70588;53.172;8.620;2023-07-08T04:12:53;6.68;;;3.50;;
81106;SDS011;70588;53.172;8.620;2023-07-08T04:15:18;3.80;;;3.37;;
81106;SDS011;70588;53.172;8.620;2023-07-08T04:17:47;3.37;;;2.67;;
81106;SDS011;70588;53.172;8.620;2023-07-08T04:20:14;5.40;;;2.55;;
81106;SDS011;70588;53.172;8.620;2023-07-08T04:22:42;4.72;;;2.92;;
81106;SDS011;70588;53.172;8.620;2023-07-08T04:25:08;3.72;;;2.47;;
81106;SDS011;70588;53.172;8.620;2023-07-08T04:27:35;2.80;;;2.30;;
81106;SDS011;70588;53.172;8.620;2023-07-08T04:30:01;3.22;;;2.55;;
81106;SDS011;70588;53.172;8.620;2023-07-08T04:32:29;3.95;;;2.47;;
81106;SDS011;70588;53.172;8.620;2023-07-08T04:34:54;4.03;;;2.60;;
81106;SDS011;70588;53.172;8.620;2023-07-08T04:37:20;3.03;;;2.10;;
81106;SDS011;70588;53.172;8.620;2023-07-08T04:39:45;4.07;;;2.42;;
81106;SDS011;70588;53.172;8.620;2023-07-08T04:42:11;3.47;;;2.40;;
81106;SDS011;70588;53.172;8.620;2023-07-08T04:44:42;3.72;;;2.47;;
81106;SDS011;70588;53.172;8.620;2023-07-08T04:47:08;3.53;;;2.13;;
81106;SDS011;70588;53.172;8.620;2023-07-08T04:49:34;2.67;;;2.35;;
81106;SDS011;70588;53.172;8.620;2023-07-08T04:52:00;3.42;;;2.45;;
81106;SDS011;70588;53.172;8.620;2023-07-08T04:54:27;2.53;;;2.33;;
81106;SDS011;70588;53.172;8.620;2023-07-08T04:56:53;3.13;;;2.30;;
81106;SDS011;70588;53.172;8.620;2023-07-08T04:59:20;4.63;;;2.63;;
81106;SDS011;70588;53.172;8.620;2023-07-08T05:01:47;3.25;;;2.20;;
81106;SDS011;70588;53.172;8.620;2023-07-08T05:04:14;2.67;;;2.30;;
81106;SDS011;70588;53.172;8.620;2023-07-08T05:06:40;2.83;;;2.15;;
81106;SDS011;70588;53.172;8.620;2023-07-08T05:09:06;3.72;;;2.17;;
81106;SDS011;70588;53.172;8.620;2023-07-08T05:11:32;3.08;;;2.22;;
81106;SDS011;70588;53.172;8.620;2023-07-08T05:13:58;3.88;;;2.22;;
81106;SDS011;70588;53.172;8.620;2023-07-08T05:16:24;2.50;;;2.20;;
81106;SDS011;70588;53.172;8.620;2023-07-08T05:18:50;2.55;;;1.90;;
81106;SDS011;70588;53.172;8.620;2023-07-08T05:21:15;4.85;;;2.00;;
81106;SDS011;70588;53.172;8.620;2023-07-08T05:23:44;2.88;;;2.20;;
81106;SDS011;70588;53.172;8.620;2023-07-08T05:26:10;2.75;;;2.00;;
81106;SDS011;70588;53.172;8.620;2023-07-08T05:28:35;2.60;;;2.08;;
81106;SDS011;70588;53.172;8.620;2023-07-08T05:31:01;3.08;;;2.08;;
81106;SDS011;70588;53.172;8.620;2023-07-08T05:33:27;2.30;;;1.65;;
81106;SDS011;70588;53.172;8.620;2023-07-08T05:35:54;2.30;;;1.90;;
81106;SDS011;70588;53.172;8.620;2023-07-08T05:38:20;2.85;;;2.03;;
81106;SDS011;70588;53.172;8.620;2023-07-08T05:40:49;2.70;;;1.60;;
81106;SDS011;70588;53.172;8.620;2023-07-08T05:43:16;2.58;;;2.35;;
81106;SDS011;70588;53.172;8.620;2023-07-08T05:45:42;3.33;;;2.17;;
81106;SDS011;70588;53.172;8.620;2023-07-08T05:48:07;5.85;;;2.20;;
81106;SDS011;70588;53.172;8.620;2023-07-08T05:50:33;1.77;;;1.57;;
81106;SDS011;70588;53.172;8.620;2023-07-08T05:52:58;2.50;;;1.92;;
81106;SDS011;70588;53.172;8.620;2023-07-08T05:55:23;2.78;;;1.95;;
81106;SDS011;70588;53.172;8.620;2023-07-08T05:57:49;2.67;;;1.90;;
81106;SDS011;70588;53.172;8.620;2023-07-08T06:00:14;3.45;;;2.00;;
81106;SDS011;70588;53.172;8.620;2023-07-08T06:02:40;3.03;;;2.10;;
81106;SDS011;70588;53.172;8.620;2023-07-08T06:05:05;2.90;;;1.83;;
81106;SDS011;70588;53.172;8.620;2023-07-08T06:07:31;2.05;;;1.73;;
81106;SDS011;70588;53.172;8.620;2023-07-08T06:09:57;2.80;;;1.70;;
81106;SDS011;70588;53.172;8.620;2023-07-08T06:12:23;2.60;;;2.10;;
81106;SDS011;70588;53.172;8.620;2023-07-08T06:14:49;3.30;;;2.10;;
81106;SDS011;70588;53.172;8.620;2023-07-08T06:17:15;2.70;;;1.80;;
81106;SDS011;70588;53.172;8.620;2023-07-08T06:19:41;3.00;;;2.38;;
81106;SDS011;70588;53.172;8.620;2023-07-08T06:22:06;1.80;;;1.70;;
81106;SDS011;70588;53.172;8.620;2023-07-08T06:24:32;2.17;;;1.58;;
81106;SDS011;70588;53.172;8.620;2023-07-08T06:26:57;2.13;;;1.83;;
81106;SDS011;70588;53.172;8.620;2023-07-08T06:29:23;2.67;;;1.70;;
81106;SDS011;70588;53.172;8.620;2023-07-08T06:31:49;1.63;;;1.52;;
81106;SDS011;70588;53.172;8.620;2023-07-08T06:34:14;2.67;;;1.73;;
81106;SDS011;70588;53.172;8.620;2023-07-08T06:36:40;3.70;;;2.05;;
81106;SDS011;70588;53.172;8.620;2023-07-08T06:39:06;3.15;;;2.35;;
81106;SDS011;70588;53.172;8.620;2023-07-08T06:41:33;2.70;;;1.92;;
81106;SDS011;70588;53.172;8.620;2023-07-08T06:43:59;3.55;;;1.90;;
81106;SDS011;70588;53.172;8.620;2023-07-08T06:46:25;1.83;;;1.55;;
81106;SDS011;70588;53.172;8.620;2023-07-08T06:48:50;1.88;;;1.77;;
81106;SDS011;70588;53.172;8.620;2023-07-08T06:51:16;2.97;;;2.10;;
81106;SDS011;70588;53.172;8.620;2023-07-08T06:53:41;2.63;;;1.95;;
81106;SDS011;70588;53.172;8.620;2023-07-08T06:56:07;3.10;;;2.10;;
81106;SDS011;70588;53.172;8.620;2023-07-08T06:58:33;2.63;;;1.90;;
81106;SDS011;70588;53.172;8.620;2023-07-08T07:00:58;2.10;;;1.75;;
81106;SDS011;70588;53.172;8.620;2023-07-08T07:03:24;1.98;;;1.77;;
81106;SDS011;70588;53.172;8.620;2023-07-08T07:05:49;2.90;;;2.33;;
81106;SDS011;70588;53.172;8.620;2023-07-08T07:08:14;4.03;;;2.15;;
81106;SDS011;70588;53.172;8.620;2023-07-08T07:10:40;3.63;;;2.00;;
81106;SDS011;70588;53.172;8.620;2023-07-08T07:13:05;3.37;;;2.87;;
81106;SDS011;70588;53.172;8.620;2023-07-08T07:15:31;3.17;;;2.08;;
81106;SDS011;70588;53.172;8.620;2023-07-08T07:17:57;2.90;;;1.98;;
81106;SDS011;70588;53.172;8.620;2023-07-08T07:20:23;2.95;;;1.80;;
81106;SDS011;70588;53.172;8.620;2023-07-08T07:22:49;2.00;;;1.85;;
81106;SDS011;70588;53.172;8.620;2023-07-08T07:25:14;2.10;;;1.90;;
81106;SDS011;70588;53.172;8.620;2023-07-08T07:27:40;3.22;;;2.20;;
81106;SDS011;70588;53.172;8.620;2023-07-08T07:30:05;4.47;;;2.20;;
81106;SDS011;70588;53.172;8.620;2023-07-08T07:32:31;3.10;;;2.38;;
81106;SDS011;70588;53.172;8.620;2023-07-08T07:34:59;2.25;;;1.90;;
81106;SDS011;70588;53.172;8.620;2023-07-08T07:37:24;3.00;;;2.47;;
81106;SDS011;70588;53.172;8.620;2023-07-08T07:39:50;2.38;;;2.17;;
81106;SDS011;70588;53.172;8.620;2023-07-08T07:42:16;2.60;;;2.40;;
81106;SDS011;70588;53.172;8.620;2023-07-08T07:44:43;4.43;;;2.63;;
81106;SDS011;70588;53.172;8.620;2023-07-08T07:47:09;2.72;;;2.53;;
81106;SDS011;70588;53.172;8.620;2023-07-08T07:49:35;3.72;;;2.22;;
81106;SDS011;70588;53.172;8.620;2023-07-08T07:52:01;2.53;;;2.00;;
81106;SDS011;70588;53.172;8.620;2023-07-08T07:54:27;2.58;;;2.22;;
81106;SDS011;70588;53.172;8.620;2023-07-08T07:56:52;3.35;;;2.30;;
81106;SDS011;70588;53.172;8.620;2023-07-08T07:59:18;3.80;;;2.90;;
81106;SDS011;70588;53.172;8.620;2023-07-08T08:01:43;4.93;;;3.03;;
81106;SDS011;70588;53.172;8.620;2023-07-08T08:04:09;2.53;;;2.25;;
81106;SDS011;70588;53.172;8.620;2023-07-08T08:06:35;2.20;;;2.05;;
81106;SDS011;70588;53.172;8.620;2023-07-08T08:09:00;2.57;;;2.37;;
81106;SDS011;70588;53.172;8.620;2023-07-08T08:11:26;2.67;;;2.47;;
81106;SDS011;70588;53.172;8.620;2023-07-08T08:13:52;2.58;;;2.05;;
81106;SDS011;70588;53.172;8.620;2023-07-08T08:16:18;3.40;;;2.42;;
81106;SDS011;70588;53.172;8.620;2023-07-08T08:18:44;3.17;;;2.42;;
81106;SDS011;70588;53.172;8.620;2023-07-08T08:21:09;2.50;;;2.23;;
81106;SDS011;70588;53.172;8.620;2023-07-08T08:23:34;4.03;;;2.92;;
81106;SDS011;70588;53.172;8.620;2023-07-08T08:26:00;2.50;;;2.17;;
81106;SDS011;70588;53.172;8.620;2023-07-08T08:28:25;3.75;;;2.70;;
81106;SDS011;70588;53.172;8.620;2023-07-08T08:30:51;2.60;;;2.40;;
81106;SDS011;70588;53.172;8.620;2023-07-08T08:33:17;3.17;;;2.40;;
81106;SDS011;70588;53.172;8.620;2023-07-08T08:35:43;3.58;;;2.55;;
81106;SDS011;70588;53.172;8.620;2023-07-08T08:38:09;2.90;;;2.60;;
81106;SDS011;70588;53.172;8.620;2023-07-08T08:40:35;3.95;;;3.53;;
81106;SDS011;70588;53.172;8.620;2023-07-08T08:43:05;3.50;;;2.35;;
81106;SDS011;70588;53.172;8.620;2023-07-08T08:45:44;2.97;;;2.30;;
81106;SDS011;70588;53.172;8.620;2023-07-08T08:48:32;7.60;;;2.70;;
81106;SDS011;70588;53.172;8.620;2023-07-08T08:51:06;2.72;;;2.45;;
81106;SDS011;70588;53.172;8.620;2023-07-08T08:53:36;4.63;;;2.67;;
81106;SDS011;70588;53.172;8.620;2023-07-08T09:01:37;3.03;;;2.38;;
81106;SDS011;70588;53.172;8.620;2023-07-08T09:04:14;2.63;;;2.42;;
81106;SDS011;70588;53.172;8.620;2023-07-08T09:06:44;3.65;;;2.47;;
81106;SDS011;70588;53.172;8.620;2023-07-08T09:09:35;4.40;;;3.15;;
81106;SDS011;70588;53.172;8.620;2023-07-08T09:12:16;3.58;;;2.78;;
81106;SDS011;70588;53.172;8.620;2023-07-08T09:14:47;2.78;;;2.38;;
81106;SDS011;70588;53.172;8.620;2023-07-08T09:17:32;3.53;;;2.88;;
81106;SDS011;70588;53.172;8.620;2023-07-08T09:28:00;3.63;;;2.63;;
81106;SDS011;70588;53.172;8.620;2023-07-08T09:30:26;2.92;;;2.63;;
81106;SDS011;70588;53.172;8.620;2023-07-08T09:32:55;2.75;;;2.55;;
81106;SDS011;70588;53.172;8.620;2023-07-08T09:35:25;4.38;;;2.88;;
81106;SDS011;70588;53.172;8.620;2023-07-08T09:37:53;3.05;;;2.22;;
81106;SDS011;70588;53.172;8.620;2023-07-08T09:40:27;2.97;;;2.30;;
81106;SDS011;70588;53.172;8.620;2023-07-08T09:43:03;3.83;;;2.42;;
81106;SDS011;70588;53.172;8.620;2023-07-08T09:45:41;4.85;;;3.20;;
81106;SDS011;70588;53.172;8.620;2023-07-08T09:48:15;4.75;;;2.63;;
81106;SDS011;70588;53.172;8.620;2023-07-08T09:50:43;3.20;;;2.58;;
81106;SDS011;70588;53.172;8.620;2023-07-08T09:53:13;2.65;;;2.25;;
81106;SDS011;70588;53.172;8.620;2023-07-08T09:55:39;2.90;;;2.60;;
81106;SDS011;70588;53.172;8.620;2023-07-08T09:58:05;5.03;;;2.83;;
81106;SDS011;70588;53.172;8.620;2023-07-08T10:00:39;5.00;;;2.65;;
81106;SDS011;70588;53.172;8.620;2023-07-08T10:06:43;3.05;;;2.75;;
81106;SDS011;70588;53.172;8.620;2023-07-08T10:08:52;3.75;;;2.53;;
81106;SDS011;70588;53.172;8.620;2023-07-08T10:11:24;3.03;;;2.45;;
81106;SDS011;70588;53.172;8.620;2023-07-08T10:13:52;2.60;;;2.33;;
81106;SDS011;70588;53.172;8.620;2023-07-08T10:16:26;2.67;;;2.45;;
81106;SDS011;70588;53.172;8.620;2023-07-08T10:18:53;3.13;;;2.40;;
81106;SDS011;70588;53.172;8.620;2023-07-08T10:26:48;3.00;;;2.70;;
81106;SDS011;70588;53.172;8.620;2023-07-08T10:32:00;3.77;;;2.90;;
81106;SDS011;70588;53.172;8.620;2023-07-08T10:34:39;3.58;;;2.53;;
81106;SDS011;70588;53.172;8.620;2023-07-08T10:45:31;3.10;;;2.80;;
81106;SDS011;70588;53.172;8.620;2023-07-08T10:55:51;2.90;;;2.53;;
81106;SDS011;70588;53.172;8.620;2023-07-08T10:58:36;4.22;;;2.53;;
81106;SDS011;70588;53.172;8.620;2023-07-08T11:06:47;4.22;;;2.45;;
81106;SDS011;70588;53.172;8.620;2023-07-08T11:09:20;3.53;;;2.55;;
81106;SDS011;70588;53.172;8.620;2023-07-08T11:12:00;2.65;;;2.28;;
81106;SDS011;70588;53.172;8.620;2023-07-08T11:14:33;2.45;;;2.20;;
81106;SDS011;70588;53.172;8.620;2023-07-08T11:17:07;3.50;;;2.10;;
81106;SDS011;70588;53.172;8.620;2023-07-08T11:19:38;3.08;;;2.40;;
81106;SDS011;70588;53.172;8.620;2023-07-08T11:22:09;3.00;;;2.70;;
81106;SDS011;70588;53.172;8.620;2023-07-08T11:27:12;2.58;;;2.38;;
81106;SDS011;70588;53.172;8.620;2023-07-08T11:29:48;2.42;;;2.22;;
81106;SDS011;70588;53.172;8.620;2023-07-08T11:32:21;2.65;;;2.30;;
81106;SDS011;70588;53.172;8.620;2023-07-08T11:34:49;2.75;;;2.50;;
81106;SDS011;70588;53.172;8.620;2023-07-08T11:37:17;3.28;;;2.70;;
81106;SDS011;70588;53.172;8.620;2023-07-08T11:39:44;3.13;;;2.58;;
81106;SDS011;70588;53.172;8.620;2023-07-08T11:42:14;2.45;;;2.25;;
81106;SDS011;70588;53.172;8.620;2023-07-08T11:44:44;3.00;;;2.45;;
81106;SDS011;70588;53.172;8.620;2023-07-08T11:47:19;3.30;;;2.83;;
81106;SDS011;70588;53.172;8.620;2023-07-08T11:49:51;4.43;;;2.80;;
81106;SDS011;70588;53.172;8.620;2023-07-08T11:52:19;2.97;;;2.40;;
81106;SDS011;70588;53.172;8.620;2023-07-08T11:54:47;3.38;;;2.38;;
81106;SDS011;70588;53.172;8.620;2023-07-08T11:57:18;3.15;;;2.67;;
81106;SDS011;70588;53.172;8.620;2023-07-08T11:59:54;3.13;;;2.83;;
81106;SDS011;70588;53.172;8.620;2023-07-08T12:02:50;3.15;;;2.85;;
81106;SDS011;70588;53.172;8.620;2023-07-08T12:05:34;4.90;;;2.97;;
81106;SDS011;70588;53.172;8.620;2023-07-08T12:08:02;3.40;;;3.05;;
81106;SDS011;70588;53.172;8.620;2023-07-08T12:10:38;3.55;;;2.90;;
81106;SDS011;70588;53.172;8.620;2023-07-08T12:13:15;3.35;;;2.88;;
81106;SDS011;70588;53.172;8.620;2023-07-08T12:15:43;3.25;;;2.92;;
81106;SDS011;70588;53.172;8.620;2023-07-08T12:18:13;3.97;;;2.72;;
81106;SDS011;70588;53.172;8.620;2023-07-08T12:20:44;3.88;;;2.70;;
81106;SDS011;70588;53.172;8.620;2023-07-08T12:23:14;3.30;;;3.00;;
81106;SDS011;70588;53.172;8.620;2023-07-08T12:25:42;3.75;;;2.60;;
81106;SDS011;70588;53.172;8.620;2023-07-08T12:28:08;4.95;;;3.05;;
81106;SDS011;70588;53.172;8.620;2023-07-08T12:30:34;4.05;;;3.13;;
81106;SDS011;70588;53.172;8.620;2023-07-08T12:33:00;3.75;;;2.90;;
81106;SDS011;70588;53.172;8.620;2023-07-08T12:35:30;3.30;;;2.15;;
81106;SDS011;70588;53.172;8.620;2023-07-08T12:38:02;4.13;;;3.45;;
81106;SDS011;70588;53.172;8.620;2023-07-08T12:40:30;2.72;;;2.50;;
81106;SDS011;70588;53.172;8.620;2023-07-08T12:42:56;2.92;;;2.25;;
81106;SDS011;70588;53.172;8.620;2023-07-08T12:45:24;2.90;;;2.33;;
81106;SDS011;70588;53.172;8.620;2023-07-08T12:47:51;4.10;;;3.13;;
81106;SDS011;70588;53.172;8.620;2023-07-08T12:50:17;5.55;;;3.25;;
81106;SDS011;70588;53.172;8.620;2023-07-08T12:52:43;3.78;;;2.95;;
81106;SDS011;70588;53.172;8.620;2023-07-08T12:55:10;3.38;;;2.70;;
81106;SDS011;70588;53.172;8.620;2023-07-08T12:57:37;5.13;;;2.90;;
81106;SDS011;70588;53.172;8.620;2023-07-08T13:00:20;3.10;;;2.53;;
81106;SDS011;70588;53.172;8.620;2023-07-08T13:02:54;4.03;;;2.95;;
81106;SDS011;70588;53.172;8.620;2023-07-08T13:05:23;4.63;;;2.88;;
81106;SDS011;70588;53.172;8.620;2023-07-08T13:07:50;3.42;;;3.03;;
81106;SDS011;70588;53.172;8.620;2023-07-08T13:10:20;4.70;;;3.17;;
81106;SDS011;70588;53.172;8.620;2023-07-08T13:12:49;4.70;;;3.33;;
81106;SDS011;70588;53.172;8.620;2023-07-08T13:15:20;4.72;;;3.67;;
81106;SDS011;70588;53.172;8.620;2023-07-08T13:17:47;3.78;;;3.38;;
81106;SDS011;70588;53.172;8.620;2023-07-08T13:20:14;3.70;;;3.10;;
81106;SDS011;70588;53.172;8.620;2023-07-08T13:22:41;3.65;;;2.50;;
81106;SDS011;70588;53.172;8.620;2023-07-08T13:25:12;3.75;;;3.13;;
81106;SDS011;70588;53.172;8.620;2023-07-08T13:27:41;4.32;;;2.95;;
81106;SDS011;70588;53.172;8.620;2023-07-08T13:30:17;6.25;;;3.92;;
81106;SDS011;70588;53.172;8.620;2023-07-08T13:32:48;4.18;;;2.75;;
81106;SDS011;70588;53.172;8.620;2023-07-08T13:35:25;2.83;;;2.20;;
81106;SDS011;70588;53.172;8.620;2023-07-08T13:38:02;5.22;;;3.00;;
81106;SDS011;70588;53.172;8.620;2023-07-08T13:40:28;3.92;;;2.88;;
81106;SDS011;70588;53.172;8.620;2023-07-08T13:42:55;3.35;;;3.05;;
81106;SDS011;70588;53.172;8.620;2023-07-08T13:45:31;4.35;;;3.20;;
81106;SDS011;70588;53.172;8.620;2023-07-08T13:48:00;3.55;;;2.80;;
81106;SDS011;70588;53.172;8.620;2023-07-08T13:50:29;4.30;;;3.20;;
81106;SDS011;70588;53.172;8.620;2023-07-08T13:53:00;3.55;;;2.67;;
81106;SDS011;70588;53.172;8.620;2023-07-08T13:55:25;5.18;;;3.42;;
81106;SDS011;70588;53.172;8.620;2023-07-08T13:57:56;6.90;;;3.13;;
81106;SDS011;70588;53.172;8.620;2023-07-08T14:00:24;4.55;;;2.92;;
81106;SDS011;70588;53.172;8.620;2023-07-08T14:02:50;3.53;;;2.88;;
81106;SDS011;70588;53.172;8.620;2023-07-08T14:05:15;3.88;;;3.10;;
81106;SDS011;70588;53.172;8.620;2023-07-08T14:07:45;4.10;;;2.92;;
81106;SDS011;70588;53.172;8.620;2023-07-08T14:10:10;4.03;;;2.90;;
81106;SDS011;70588;53.172;8.620;2023-07-08T14:12:37;4.18;;;3.33;;
81106;SDS011;70588;53.172;8.620;2023-07-08T14:15:02;3.90;;;3.13;;
81106;SDS011;70588;53.172;8.620;2023-07-08T14:17:28;4.32;;;3.38;;
81106;SDS011;70588;53.172;8.620;2023-07-08T14:19:53;5.50;;;2.55;;
81106;SDS011;70588;53.172;8.620;2023-07-08T14:22:21;3.47;;;2.60;;
81106;SDS011;70588;53.172;8.620;2023-07-08T14:24:51;3.60;;;2.70;;
81106;SDS011;70588;53.172;8.620;2023-07-08T14:27:17;3.00;;;2.40;;
81106;SDS011;70588;53.172;8.620;2023-07-08T14:29:45;3.58;;;2.88;;
81106;SDS011;70588;53.172;8.620;2023-07-08T14:32:12;3.58;;;2.70;;
81106;SDS011;70588;53.172;8.620;2023-07-08T14:34:41;4.40;;;3.53;;
81106;SDS011;70588;53.172;8.620;2023-07-08T14:37:13;3.80;;;3.13;;
81106;SDS011;70588;53.172;8.620;2023-07-08T14:39:40;5.15;;;3.03;;
81106;SDS011;70588;53.172;8.620;2023-07-08T14:42:05;3.65;;;2.92;;
81106;SDS011;70588;53.172;8.620;2023-07-08T14:44:36;4.47;;;3.35;;
81106;SDS011;70588;53.172;8.620;2023-07-08T14:47:04;3.53;;;3.00;;
81106;SDS011;70588;53.172;8.620;2023-07-08T14:49:34;4.10;;;2.95;;
81106;SDS011;70588;53.172;8.620;2023-07-08T14:52:00;4.60;;;3.53;;
81106;SDS011;70588;53.172;8.620;2023-07-08T14:54:25;4.53;;;3.58;;
81106;SDS011;70588;53.172;8.620;2023-07-08T14:56:52;6.30;;;3.70;;
81106;SDS011;70588;53.172;8.620;2023-07-08T14:59:21;3.28;;;2.83;;
81106;SDS011;70588;53.172;8.620;2023-07-08T15:01:48;3.70;;;3.20;;
81106;SDS011;70588;53.172;8.620;2023-07-08T15:04:16;4.65;;;3.33;;
81106;SDS011;70588;53.172;8.620;2023-07-08T15:06:43;3.90;;;3.10;;
81106;SDS011;70588;53.172;8.620;2023-07-08T15:09:09;4.78;;;2.85;;
81106;SDS011;70588;53.172;8.620;2023-07-08T15:11:35;4.35;;;3.05;;
81106;SDS011;70588;53.172;8.620;2023-07-08T15:14:03;3.65;;;3.20;;
81106;SDS011;70588;53.172;8.620;2023-07-08T15:16:29;4.57;;;3.08;;
81106;SDS011;70588;53.172;8.620;2023-07-08T15:18:55;2.92;;;2.63;;
81106;SDS011;70588;53.172;8.620;2023-07-08T15:21:20;3.80;;;3.20;;
81106;SDS011;70588;53.172;8.620;2023-07-08T15:23:46;3.83;;;3.17;;
81106;SDS011;70588;53.172;8.620;2023-07-08T15:26:11;4.77;;;3.33;;
81106;SDS011;70588;53.172;8.620;2023-07-08T15:28:47;3.70;;;2.88;;
81106;SDS011;70588;53.172;8.620;2023-07-08T15:31:31;3.63;;;3.08;;
81106;SDS011;70588;53.172;8.620;2023-07-08T15:33:59;3.65;;;3.10;;
81106;SDS011;70588;53.172;8.620;2023-07-08T15:36:25;4.10;;;2.92;;
81106;SDS011;70588;53.172;8.620;2023-07-08T15:38:51;4.82;;;3.70;;
81106;SDS011;70588;53.172;8.620;2023-07-08T15:41:20;5.50;;;2.88;;
81106;SDS011;70588;53.172;8.620;2023-07-08T15:46:13;3.75;;;3.25;;
81106;SDS011;70588;53.172;8.620;2023-07-08T15:48:40;4.97;;;2.85;;
81106;SDS011;70588;53.172;8.620;2023-07-08T15:51:07;3.47;;;3.05;;
81106;SDS011;70588;53.172;8.620;2023-07-08T15:53:33;4.93;;;3.00;;
81106;SDS011;70588;53.172;8.620;2023-07-08T15:55:58;3.60;;;2.67;;